createdAt,value
2023-05-03T00:02:07.967Z,2.17
2023-05-03T00:04:36.696Z,1.75
2023-05-03T00:07:06.872Z,1.80
2023-05-03T00:09:35.792Z,1.80
2023-05-03T00:12:06.143Z,2.10
2023-05-03T00:14:34.788Z,1.63
2023-05-03T00:17:03.362Z,1.63
2023-05-03T00:19:33.793Z,1.80
2023-05-03T00:22:02.364Z,1.80
2023-05-03T00:24:32.301Z,1.38
2023-05-03T00:27:00.885Z,1.73
2023-05-03T00:29:29.455Z,1.63
2023-05-03T00:32:00.840Z,1.90
2023-05-03T00:34:29.543Z,1.85
2023-05-03T00:36:58.077Z,1.80
2023-05-03T00:39:26.852Z,1.92
2023-05-03T00:41:59.448Z,1.90
2023-05-03T00:44:28.016Z,1.80
2023-05-03T00:46:57.871Z,1.80
2023-05-03T00:49:26.947Z,2.00
2023-05-03T00:51:55.690Z,1.83
2023-05-03T00:54:24.649Z,2.00
2023-05-03T00:56:53.288Z,1.85
2023-05-03T00:59:23.547Z,1.90
2023-05-03T01:01:53.880Z,1.98
2023-05-03T01:04:24.219Z,2.00
2023-05-03T01:07:00.727Z,1.80
2023-05-03T01:09:36.428Z,1.90
2023-05-03T01:12:15.884Z,2.10
2023-05-03T01:15:09.603Z,2.08
2023-05-03T01:17:43.355Z,2.00
2023-05-03T01:20:15.349Z,1.90
2023-05-03T01:22:48.402Z,2.13
2023-05-03T01:25:18.487Z,2.22
2023-05-03T01:27:46.981Z,1.70
2023-05-03T01:30:15.867Z,1.88
2023-05-03T01:32:56.190Z,1.90
2023-05-03T01:35:30.489Z,2.03
2023-05-03T01:37:59.960Z,1.60
2023-05-03T01:40:32.072Z,1.70
2023-05-03T01:43:04.272Z,2.00
2023-05-03T01:45:32.943Z,1.90
2023-05-03T01:48:01.637Z,1.95
2023-05-03T01:50:30.283Z,1.98
2023-05-03T01:52:58.929Z,1.70
2023-05-03T01:55:31.919Z,1.67
2023-05-03T01:58:00.788Z,1.80
2023-05-03T02:00:29.462Z,1.77
2023-05-03T02:02:58.375Z,1.80
2023-05-03T02:05:27.148Z,1.98
2023-05-03T02:07:56.008Z,1.95
2023-05-03T02:10:25.395Z,1.80
2023-05-03T02:12:58.871Z,1.88
2023-05-03T02:15:27.625Z,1.88
2023-05-03T02:17:58.588Z,1.90
2023-05-03T02:20:27.245Z,1.90
2023-05-03T02:22:56.084Z,1.98
2023-05-03T02:25:26.914Z,1.90
2023-05-03T02:27:56.116Z,1.70
2023-05-03T02:30:26.415Z,1.80
2023-05-03T02:32:55.013Z,2.13
2023-05-03T02:35:23.667Z,2.20
2023-05-03T02:37:52.502Z,1.90
2023-05-03T02:40:21.786Z,2.00
2023-05-03T02:45:38.567Z,2.40
2023-05-03T02:48:07.735Z,2.15
2023-05-03T02:50:37.022Z,2.05
2023-05-03T02:53:05.716Z,2.17
2023-05-03T02:55:34.365Z,2.42
2023-05-03T02:58:03.465Z,2.10
2023-05-03T03:00:32.250Z,2.05
2023-05-03T03:03:02.431Z,1.90
2023-05-03T03:05:31.258Z,2.10
2023-05-03T03:07:59.875Z,1.98
2023-05-03T03:10:29.384Z,2.10
2023-05-03T03:12:58.293Z,2.17
2023-05-03T03:15:33.967Z,1.88
2023-05-03T03:18:04.105Z,2.10
2023-05-03T03:20:32.912Z,2.00
2023-05-03T03:23:01.786Z,2.28
2023-05-03T03:25:30.458Z,1.92
2023-05-03T03:28:00.793Z,1.98
2023-05-03T03:30:30.438Z,2.10
2023-05-03T03:33:19.386Z,2.08
2023-05-03T03:35:48.626Z,2.30
2023-05-03T03:38:18.848Z,2.30
2023-05-03T03:40:57.964Z,1.95
2023-05-03T03:43:26.818Z,2.03
2023-05-03T03:45:55.415Z,2.10
2023-05-03T03:48:25.889Z,1.92
2023-05-03T03:50:56.446Z,1.80
2023-05-03T03:53:31.211Z,2.03
2023-05-03T03:55:59.739Z,1.80
2023-05-03T03:58:28.349Z,1.90
2023-05-03T04:00:57.890Z,2.22
2023-05-03T04:03:29.537Z,2.20
2023-05-03T04:05:58.999Z,1.95
2023-05-03T04:08:28.791Z,2.20
2023-05-03T04:10:57.565Z,2.50
2023-05-03T04:13:28.033Z,2.20
2023-05-03T04:15:58.327Z,2.10
2023-05-03T04:18:29.506Z,2.20
2023-05-03T04:21:00.014Z,2.03
2023-05-03T04:23:29.426Z,2.00
2023-05-03T04:25:58.000Z,2.30
2023-05-03T04:28:28.114Z,2.22
2023-05-03T04:31:00.150Z,2.08
2023-05-03T04:33:31.321Z,2.63
2023-05-03T04:36:04.496Z,2.40
2023-05-03T04:38:34.447Z,2.25
2023-05-03T04:41:06.608Z,2.20
2023-05-03T04:43:35.405Z,2.28
2023-05-03T04:46:04.981Z,2.10
2023-05-03T04:48:39.252Z,2.13
2023-05-03T04:51:07.734Z,2.15
2023-05-03T04:53:36.713Z,2.72
2023-05-03T04:56:10.573Z,2.20
2023-05-03T04:58:41.620Z,2.25
2023-05-03T05:01:10.710Z,2.10
2023-05-03T05:03:41.198Z,2.13
2023-05-03T05:06:16.548Z,2.20
2023-05-03T05:08:45.638Z,1.92
2023-05-03T05:11:16.798Z,1.80
2023-05-03T05:13:46.646Z,2.00
2023-05-03T05:16:15.817Z,2.20
2023-05-03T05:18:51.486Z,2.25
2023-05-03T05:21:24.444Z,2.50
2023-05-03T05:23:54.351Z,2.30
2023-05-03T05:26:22.987Z,2.10
2023-05-03T05:28:51.987Z,2.70
2023-05-03T05:31:22.030Z,2.75
2023-05-03T05:33:52.268Z,2.60
2023-05-03T05:36:21.125Z,3.58
2023-05-03T05:38:51.625Z,3.92
2023-05-03T05:41:21.262Z,3.67
2023-05-03T05:43:49.993Z,10.07
2023-05-03T05:46:21.209Z,7.20
2023-05-03T05:48:52.548Z,8.18
2023-05-03T05:51:22.019Z,19.73
2023-05-03T05:53:50.903Z,14.32
2023-05-03T05:56:21.681Z,10.65
2023-05-03T05:58:50.923Z,18.48
2023-05-03T06:01:20.045Z,14.45
2023-05-03T06:03:48.753Z,18.00
2023-05-03T06:06:19.081Z,9.65
2023-05-03T06:08:52.031Z,13.50
2023-05-03T06:11:22.581Z,9.88
2023-05-03T06:13:51.508Z,9.25
2023-05-03T06:16:21.904Z,7.47
2023-05-03T06:18:51.556Z,7.35
2023-05-03T06:21:22.564Z,6.72
2023-05-03T06:23:51.240Z,5.68
2023-05-03T06:26:19.866Z,5.88
2023-05-03T06:28:48.647Z,5.25
2023-05-03T06:31:17.596Z,6.90
2023-05-03T06:33:47.725Z,6.15
2023-05-03T06:36:17.164Z,7.00
2023-05-03T06:38:47.292Z,4.28
2023-05-03T06:41:16.206Z,6.22
2023-05-03T06:43:45.113Z,4.00
2023-05-03T06:46:14.297Z,4.30
2023-05-03T06:48:43.100Z,4.07
2023-05-03T06:51:12.265Z,4.47
2023-05-03T06:53:40.925Z,4.85
2023-05-03T06:56:12.038Z,4.22
2023-05-03T06:58:40.950Z,3.50
2023-05-03T07:01:09.893Z,3.40
2023-05-03T07:03:41.650Z,3.65
2023-05-03T07:06:11.428Z,3.13
2023-05-03T07:08:40.552Z,2.67
2023-05-03T07:11:11.064Z,2.40
2023-05-03T07:13:40.173Z,3.00
2023-05-03T07:16:09.137Z,2.90
2023-05-03T07:18:37.714Z,3.30
2023-05-03T07:21:08.665Z,2.80
2023-05-03T07:23:38.430Z,2.55
2023-05-03T07:26:07.091Z,2.83
2023-05-03T07:28:37.171Z,2.33
2023-05-03T07:31:05.811Z,2.40
2023-05-03T07:33:37.782Z,2.20
2023-05-03T07:36:07.490Z,2.13
2023-05-03T07:38:36.093Z,2.58
2023-05-03T07:41:04.756Z,2.30
2023-05-03T07:43:33.474Z,2.45
2023-05-03T07:46:04.156Z,3.08
2023-05-03T07:48:34.494Z,2.50
2023-05-03T07:51:05.065Z,2.60
2023-05-03T07:53:35.298Z,2.80
2023-05-03T07:56:04.069Z,2.50
2023-05-03T07:58:40.087Z,2.13
2023-05-03T08:01:13.650Z,2.83
2023-05-03T08:03:43.769Z,2.33
2023-05-03T08:06:12.532Z,2.30
2023-05-03T08:08:42.389Z,2.63
2023-05-03T08:11:11.169Z,2.22
2023-05-03T08:13:41.426Z,1.92
2023-05-03T08:16:12.618Z,2.10
2023-05-03T08:18:42.513Z,1.95
2023-05-03T08:21:13.508Z,2.20
2023-05-03T08:23:42.490Z,2.00
2023-05-03T08:26:11.110Z,2.33
2023-05-03T08:28:39.730Z,2.20
2023-05-03T08:31:08.569Z,1.90
2023-05-03T08:33:41.936Z,2.60
2023-05-03T08:36:10.562Z,2.22
2023-05-03T08:38:41.886Z,2.42
2023-05-03T08:41:20.106Z,2.55
2023-05-03T08:43:54.131Z,2.50
2023-05-03T08:46:23.188Z,2.22
2023-05-03T08:48:56.869Z,2.25
2023-05-03T08:51:29.053Z,2.33
2023-05-03T08:53:57.844Z,2.50
2023-05-03T08:56:31.111Z,2.40
2023-05-03T08:59:07.323Z,2.15
2023-05-03T09:01:37.608Z,2.40
2023-05-03T09:04:13.005Z,2.40
2023-05-03T09:06:42.161Z,2.50
2023-05-03T09:09:11.057Z,2.50
2023-05-03T09:11:40.214Z,2.75
2023-05-03T09:14:13.191Z,2.10
2023-05-03T09:16:44.583Z,2.50
2023-05-03T09:19:16.328Z,2.60
2023-05-03T09:21:47.031Z,2.45
2023-05-03T09:24:17.102Z,2.20
2023-05-03T09:26:47.196Z,2.15
2023-05-03T09:29:30.057Z,2.45
2023-05-03T09:32:05.416Z,2.75
2023-05-03T09:34:37.263Z,2.60
2023-05-03T09:37:10.222Z,2.58
2023-05-03T09:39:38.694Z,2.42
2023-05-03T09:42:15.458Z,2.28
2023-05-03T09:44:51.521Z,2.67
2023-05-03T09:47:21.514Z,2.53
2023-05-03T09:49:51.325Z,2.72
2023-05-03T09:52:23.404Z,2.22
2023-05-03T09:54:55.534Z,2.63
2023-05-03T09:57:24.522Z,3.20
2023-05-03T09:59:53.293Z,2.80
2023-05-03T10:02:22.581Z,2.50
2023-05-03T10:04:53.768Z,2.33
2023-05-03T10:07:24.239Z,2.30
2023-05-03T10:09:52.934Z,2.35
2023-05-03T10:12:23.588Z,2.47
2023-05-03T10:14:55.549Z,2.40
2023-05-03T10:17:45.600Z,2.30
2023-05-03T10:20:24.714Z,2.40
2023-05-03T10:23:09.999Z,2.70
2023-05-03T10:25:40.058Z,2.35
2023-05-03T10:28:10.153Z,2.65
2023-05-03T10:30:40.869Z,2.63
2023-05-03T10:33:33.888Z,2.67
2023-05-03T10:36:10.612Z,2.40
2023-05-03T10:38:43.750Z,2.70
2023-05-03T10:41:12.563Z,2.45
2023-05-03T10:43:46.485Z,2.53
2023-05-03T10:46:34.268Z,2.20
2023-05-03T10:49:21.623Z,2.00
2023-05-03T10:51:51.933Z,2.25
2023-05-03T10:54:20.748Z,2.47
2023-05-03T10:56:54.311Z,2.33
2023-05-03T10:59:25.467Z,2.10
2023-05-03T11:01:54.523Z,2.40
2023-05-03T11:04:46.732Z,2.10
2023-05-03T11:07:22.869Z,2.15
2023-05-03T11:09:51.911Z,2.40
2023-05-03T11:12:21.128Z,2.10
2023-05-03T11:14:51.738Z,2.22
2023-05-03T11:17:21.621Z,2.40
2023-05-03T11:19:51.562Z,1.88
2023-05-03T11:22:22.377Z,2.15
2023-05-03T11:24:51.860Z,2.00
2023-05-03T11:27:25.141Z,2.17
2023-05-03T11:29:58.641Z,1.80
2023-05-03T11:32:31.445Z,2.10
2023-05-03T11:35:03.867Z,2.10
2023-05-03T11:37:34.636Z,2.00
2023-05-03T11:40:05.070Z,2.20
2023-05-03T11:42:33.897Z,2.00
2023-05-03T11:45:04.248Z,2.17
2023-05-03T11:47:33.555Z,1.88
2023-05-03T11:50:02.448Z,2.30
2023-05-03T11:52:31.087Z,2.50
2023-05-03T11:55:05.619Z,2.42
2023-05-03T11:57:37.554Z,2.20
2023-05-03T12:00:17.339Z,2.17
2023-05-03T12:02:49.594Z,2.20
2023-05-03T12:05:19.143Z,2.17
2023-05-03T12:07:48.970Z,2.00
2023-05-03T12:10:23.461Z,2.38
2023-05-03T12:12:56.107Z,1.95
2023-05-03T12:15:30.361Z,1.92
2023-05-03T12:18:00.940Z,2.03
2023-05-03T12:23:05.251Z,1.83
2023-05-03T12:25:45.046Z,2.38
2023-05-03T12:28:20.480Z,1.85
2023-05-03T12:30:52.906Z,1.98
2023-05-03T12:33:23.093Z,1.90
2023-05-03T12:35:54.163Z,1.65
2023-05-03T12:38:25.220Z,2.10
2023-05-03T12:40:55.749Z,1.90
2023-05-03T12:43:24.411Z,1.90
2023-05-03T12:46:16.581Z,1.98
2023-05-03T12:48:46.165Z,1.75
2023-05-03T12:53:48.008Z,2.10
2023-05-03T12:56:18.281Z,2.20
2023-05-03T13:02:19.242Z,2.40
2023-05-03T13:04:40.703Z,2.10
2023-05-03T13:07:00.488Z,1.80
2023-05-03T13:10:12.209Z,2.20
2023-05-03T13:12:20.813Z,2.30
2023-05-03T13:14:49.958Z,2.25
2023-05-03T13:17:20.421Z,2.33
2023-05-03T13:19:49.533Z,2.05
2023-05-03T13:22:18.891Z,2.40
2023-05-03T13:24:48.409Z,1.90
2023-05-03T13:27:21.738Z,2.38
2023-05-03T13:29:50.406Z,2.40
2023-05-03T13:32:20.354Z,1.80
2023-05-03T13:34:50.113Z,2.20
2023-05-03T13:37:19.355Z,2.25
2023-05-03T13:39:48.201Z,2.00
2023-05-03T13:42:16.629Z,2.20
2023-05-03T13:44:48.058Z,2.25
2023-05-03T13:47:18.936Z,2.20
2023-05-03T13:49:47.301Z,2.30
2023-05-03T13:52:15.919Z,2.30
2023-05-03T13:54:44.522Z,2.00
2023-05-03T13:57:13.003Z,2.40
2023-05-03T13:59:41.573Z,1.80
2023-05-03T14:02:11.967Z,2.50
2023-05-03T14:04:42.269Z,2.50
2023-05-03T14:07:13.472Z,2.45
2023-05-03T14:09:42.346Z,2.22
2023-05-03T14:12:11.054Z,2.45
2023-05-03T14:14:39.929Z,2.67
2023-05-03T14:17:08.907Z,2.47
2023-05-03T14:19:39.165Z,2.05
2023-05-03T14:22:08.213Z,2.40
2023-05-03T14:24:37.361Z,2.28
2023-05-03T14:27:06.784Z,2.00
2023-05-03T14:29:35.391Z,2.35
2023-05-03T14:32:04.046Z,2.40
2023-05-03T14:34:32.820Z,2.17
2023-05-03T14:37:05.284Z,2.72
2023-05-03T14:39:35.608Z,2.20
2023-05-03T14:42:04.317Z,2.20
2023-05-03T14:44:33.122Z,2.10
2023-05-03T14:47:03.361Z,2.58
2023-05-03T14:49:37.237Z,2.60
2023-05-03T14:52:07.616Z,2.25
2023-05-03T14:54:36.072Z,2.10
2023-05-03T14:57:05.160Z,2.28
2023-05-03T14:59:34.289Z,2.15
2023-05-03T15:02:03.304Z,1.75
2023-05-03T15:04:31.923Z,2.35
2023-05-03T15:07:01.545Z,2.50
2023-05-03T15:09:31.826Z,1.77
2023-05-03T15:12:02.038Z,2.60
2023-05-03T15:14:49.406Z,2.13
2023-05-03T15:17:18.503Z,2.10
2023-05-03T15:19:47.978Z,2.00
2023-05-03T15:22:17.101Z,2.17
2023-05-03T15:24:47.317Z,2.08
2023-05-03T15:27:15.891Z,2.10
2023-05-03T15:29:44.554Z,2.10
2023-05-03T15:32:13.163Z,2.50
2023-05-03T15:34:41.829Z,2.20
2023-05-03T15:37:12.372Z,2.30
2023-05-03T15:39:41.238Z,2.35
2023-05-03T15:42:11.306Z,1.92
2023-05-03T15:44:40.122Z,2.35
2023-05-03T15:47:08.753Z,2.10
2023-05-03T15:49:37.263Z,2.40
2023-05-03T15:52:07.710Z,2.17
2023-05-03T15:54:37.716Z,2.38
2023-05-03T15:57:06.445Z,2.33
2023-05-03T15:59:36.353Z,2.08
2023-05-03T16:02:05.343Z,2.05
2023-05-03T16:04:34.028Z,2.03
2023-05-03T16:07:02.463Z,2.35
2023-05-03T16:09:31.167Z,2.15
2023-05-03T16:12:00.461Z,1.98
2023-05-03T16:14:29.355Z,2.53
2023-05-03T16:17:00.346Z,2.40
2023-05-03T16:19:28.961Z,1.95
2023-05-03T16:21:57.523Z,1.90
2023-05-03T16:24:26.228Z,2.20
2023-05-03T16:26:54.856Z,2.50
2023-05-03T16:29:23.434Z,2.28
2023-05-03T16:31:52.706Z,2.63
2023-05-03T16:34:22.953Z,2.40
2023-05-03T16:36:51.477Z,2.25
2023-05-03T16:39:20.173Z,2.45
2023-05-03T16:41:48.697Z,2.50
2023-05-03T16:44:18.536Z,2.03
2023-05-03T16:46:48.723Z,2.10
2023-05-03T16:49:18.466Z,2.03
2023-05-03T16:51:48.493Z,2.10
2023-05-03T16:54:19.090Z,2.10
2023-05-03T16:56:56.883Z,2.20
2023-05-03T16:59:28.540Z,2.13
2023-05-03T17:01:56.967Z,2.08
2023-05-03T17:04:25.422Z,2.00
2023-05-03T17:06:56.164Z,2.55
2023-05-03T17:09:24.837Z,2.05
2023-05-03T17:11:53.613Z,2.00
2023-05-03T17:14:22.260Z,2.05
2023-05-03T17:16:51.485Z,2.13
2023-05-03T17:19:20.837Z,2.10
2023-05-03T17:21:49.308Z,1.80
2023-05-03T17:24:19.592Z,1.90
2023-05-03T17:26:49.690Z,2.40
2023-05-03T17:29:18.269Z,2.20
2023-05-03T17:31:46.919Z,2.10
2023-05-03T17:34:15.889Z,2.35
2023-05-03T17:36:44.450Z,2.00
2023-05-03T17:39:13.205Z,2.60
2023-05-03T17:41:43.147Z,2.10
2023-05-03T17:44:12.488Z,2.15
2023-05-03T17:46:41.575Z,2.13
2023-05-03T17:49:10.784Z,2.10
2023-05-03T17:51:40.097Z,2.20
2023-05-03T17:54:09.034Z,2.22
2023-05-03T17:56:37.723Z,2.10
2023-05-03T17:59:08.099Z,2.10
2023-05-03T18:01:36.779Z,1.90
2023-05-03T18:04:05.829Z,2.22
2023-05-03T18:06:34.808Z,2.10
2023-05-03T18:09:07.183Z,2.00
2023-05-03T18:11:35.737Z,2.15
2023-05-03T18:14:04.295Z,1.80
2023-05-03T18:16:34.208Z,1.90
2023-05-03T18:19:03.677Z,2.00
2023-05-03T18:21:33.598Z,2.10
2023-05-03T18:24:02.398Z,2.17
2023-05-03T18:26:31.017Z,1.80
2023-05-03T18:28:59.950Z,2.10
2023-05-03T18:31:28.642Z,1.95
2023-05-03T18:33:58.856Z,2.00
2023-05-03T18:36:27.468Z,2.20
2023-05-03T18:38:56.170Z,1.95
2023-05-03T18:41:27.354Z,2.10
2023-05-03T18:43:58.002Z,2.08
2023-05-03T18:46:27.068Z,1.90
2023-05-03T18:48:55.844Z,1.80
2023-05-03T18:51:25.845Z,2.35
2023-05-03T18:53:54.428Z,1.80
2023-05-03T18:56:22.993Z,1.60
2023-05-03T18:58:51.624Z,1.92
2023-05-03T19:01:20.242Z,2.00
2023-05-03T19:03:48.963Z,2.08
2023-05-03T19:06:17.979Z,1.75
2023-05-03T19:08:49.516Z,1.90
2023-05-03T19:11:18.353Z,1.92
2023-05-03T19:13:47.531Z,1.70
2023-05-03T19:16:16.583Z,1.92
2023-05-03T19:18:45.494Z,1.88
2023-05-03T19:21:17.315Z,1.90
2023-05-03T19:23:47.685Z,1.90
2023-05-03T19:26:16.446Z,2.30
2023-05-03T19:28:45.233Z,1.80
2023-05-03T19:31:14.025Z,1.98
2023-05-03T19:33:42.718Z,1.60
2023-05-03T19:36:14.788Z,1.70
2023-05-03T19:38:43.592Z,1.58
2023-05-03T19:41:13.610Z,1.65
2023-05-03T19:43:42.713Z,1.42
2023-05-03T19:46:11.894Z,1.60
2023-05-03T19:48:40.507Z,1.48
2023-05-03T19:51:14.575Z,1.60
2023-05-03T19:53:43.208Z,1.60
2023-05-03T19:56:15.025Z,1.60
2023-05-03T19:58:43.815Z,1.40
2023-05-03T20:01:12.582Z,1.60
2023-05-03T20:03:42.511Z,1.60
2023-05-03T20:06:11.479Z,1.70
2023-05-03T20:08:40.138Z,1.70
2023-05-03T20:11:08.769Z,1.65
2023-05-03T20:13:38.888Z,2.00
2023-05-03T20:16:08.422Z,1.60
2023-05-03T20:18:37.130Z,1.80
2023-05-03T20:21:05.739Z,1.60
2023-05-03T20:23:34.258Z,1.80
2023-05-03T20:26:02.872Z,1.60
2023-05-03T20:28:32.562Z,1.63
2023-05-03T20:31:02.713Z,1.60
2023-05-03T20:33:31.356Z,1.65
2023-05-03T20:35:59.917Z,1.50
2023-05-03T20:38:28.411Z,1.65
2023-05-03T20:40:56.911Z,1.77
2023-05-03T20:43:25.401Z,1.50
2023-05-03T20:45:54.469Z,1.60
2023-05-03T20:48:24.503Z,1.70
2023-05-03T20:50:53.036Z,1.60
2023-05-03T20:53:21.642Z,1.88
2023-05-03T20:55:56.427Z,1.50
2023-05-03T20:58:25.312Z,1.77
2023-05-03T21:00:56.890Z,1.50
2023-05-03T21:03:28.052Z,1.60
2023-05-03T21:05:57.456Z,1.70
2023-05-03T21:08:26.026Z,1.60
2023-05-03T21:10:55.099Z,1.48
2023-05-03T21:13:23.737Z,1.40
2023-05-03T21:15:52.294Z,1.58
2023-05-03T21:18:20.988Z,1.63
2023-05-03T21:20:50.895Z,1.40
2023-05-03T21:23:19.389Z,1.33
2023-05-03T21:25:47.965Z,1.40
2023-05-03T21:28:16.601Z,1.40
2023-05-03T21:30:48.304Z,1.40
2023-05-03T21:33:18.118Z,1.27
2023-05-03T21:35:46.619Z,1.50
2023-05-03T21:38:17.738Z,1.40
2023-05-03T21:40:47.076Z,1.30
2023-05-03T21:43:18.334Z,1.80
2023-05-03T21:45:48.281Z,1.50
2023-05-03T21:48:16.861Z,1.50
2023-05-03T21:50:46.056Z,1.40
2023-05-03T21:53:16.099Z,1.50
2023-05-03T21:55:46.548Z,1.55
2023-05-03T21:58:15.188Z,1.33
2023-05-03T22:00:44.355Z,1.33
2023-05-03T22:03:14.934Z,1.50
2023-05-03T22:05:47.839Z,1.70
2023-05-03T22:08:20.438Z,1.50
2023-05-03T22:10:48.915Z,1.40
2023-05-03T22:13:18.012Z,1.25
2023-05-03T22:15:46.681Z,1.75
2023-05-03T22:18:15.210Z,1.70
2023-05-03T22:20:43.771Z,1.50
2023-05-03T22:23:12.419Z,1.77
2023-05-03T22:25:42.553Z,1.63
2023-05-03T22:28:11.347Z,1.50
2023-05-03T22:30:39.849Z,1.40
2023-05-03T22:33:08.484Z,1.77
2023-05-03T22:35:37.046Z,1.55
2023-05-03T22:38:06.444Z,1.73
2023-05-03T22:40:34.935Z,1.30
2023-05-03T22:43:06.048Z,1.48
2023-05-03T22:45:34.766Z,1.52
2023-05-03T22:48:03.492Z,1.73
2023-05-03T22:50:32.034Z,1.40
2023-05-03T22:53:00.841Z,1.80
2023-05-03T22:55:29.354Z,1.70
2023-05-03T22:58:02.268Z,1.70
2023-05-03T23:00:32.436Z,1.70
2023-05-03T23:03:01.534Z,2.10
2023-05-03T23:05:30.430Z,1.70
2023-05-03T23:07:58.948Z,1.80
2023-05-03T23:10:27.608Z,1.70
2023-05-03T23:12:56.335Z,2.20
2023-05-03T23:15:25.072Z,1.40
2023-05-03T23:17:54.988Z,1.77
2023-05-03T23:20:23.516Z,1.60
2023-05-03T23:22:52.081Z,1.67
2023-05-03T23:25:20.727Z,1.77
2023-05-03T23:27:49.584Z,1.50
2023-05-03T23:30:18.594Z,1.92
2023-05-03T23:32:47.686Z,1.88
2023-05-03T23:35:18.295Z,1.58
2023-05-03T23:37:46.860Z,1.70
2023-05-03T23:40:15.429Z,1.58
2023-05-03T23:42:46.308Z,1.70
2023-05-03T23:45:14.903Z,1.67
2023-05-03T23:47:44.639Z,1.45
2023-05-03T23:50:14.029Z,1.50
2023-05-03T23:52:44.129Z,1.50
2023-05-03T23:55:12.838Z,1.65
2023-05-03T23:57:41.457Z,1.60
